sensor_id;sensor_type;location;lat;lon;timestamp;pressure;altitude;pressure_sealevel;temperature;humidity
13367;BME280;6752;52.612;13.630;2022-12-13T00:03:47;100596.99;;;-0.74;100.00
13367;BME280;6752;52.612;13.630;2022-12-13T00:08:50;100587.36;;;-0.63;100.00
13367;BME280;6752;52.612;13.630;2022-12-13T00:13:55;100577.72;;;-0.78;100.00
13367;BME280;6752;52.612;13.630;2022-12-13T00:18:57;100576.53;;;-0.80;100.00
13367;BME280;6752;52.612;13.630;2022-12-13T00:24:04;100564.34;;;-0.64;100.00
13367;BME280;6752;52.612;13.630;2022-12-13T00:29:05;100563.31;;;-0.72;100.00
13367;BME280;6752;52.612;13.630;2022-12-13T00:34:10;100559.25;;;-0.76;100.00
13367;BME280;6752;52.612;13.630;2022-12-13T00:39:12;100556.31;;;-0.78;100.00
13367;BME280;6752;52.612;13.630;2022-12-13T00:44:17;100554.52;;;-0.73;100.00
13367;BME280;6752;52.612;13.630;2022-12-13T00:49:21;100549.73;;;-0.84;100.00
13367;BME280;6752;52.612;13.630;2022-12-13T00:54:26;100549.47;;;-0.77;100.00
13367;BME280;6752;52.612;13.630;2022-12-13T00:59:29;100539.60;;;-0.85;100.00
13367;BME280;6752;52.612;13.630;2022-12-13T01:04:31;100544.49;;;-0.89;100.00
13367;BME280;6752;52.612;13.630;2022-12-13T01:09:33;100550.57;;;-0.92;100.00
13367;BME280;6752;52.612;13.630;2022-12-13T01:14:37;100553.02;;;-0.81;100.00
13367;BME280;6752;52.612;13.630;2022-12-13T01:19:38;100557.15;;;-0.86;100.00
13367;BME280;6752;52.612;13.630;2022-12-13T01:24:44;100555.35;;;-0.82;100.00
13367;BME280;6752;52.612;13.630;2022-12-13T01:29:46;100555.66;;;-0.85;100.00
13367;BME280;6752;52.612;13.630;2022-12-13T01:34:48;100549.73;;;-0.92;100.00
13367;BME280;6752;52.612;13.630;2022-12-13T01:39:51;100549.84;;;-0.89;100.00
13367;BME280;6752;52.612;13.630;2022-12-13T01:50:00;100547.86;;;-0.87;100.00
13367;BME280;6752;52.612;13.630;2022-12-13T01:55:02;100544.80;;;-0.83;100.00
13367;BME280;6752;52.612;13.630;2022-12-13T02:00:04;100539.30;;;-0.82;100.00
13367;BME280;6752;52.612;13.630;2022-12-13T02:05:26;100544.41;;;-0.66;100.00
13367;BME280;6752;52.612;13.630;2022-12-13T02:10:27;100545.91;;;-0.81;100.00
13367;BME280;6752;52.612;13.630;2022-12-13T02:15:36;100546.72;;;-0.76;100.00
13367;BME280;6752;52.612;13.630;2022-12-13T02:26:29;100531.61;;;-0.81;100.00
13367;BME280;6752;52.612;13.630;2022-12-13T02:31:34;100530.83;;;-0.59;100.00
13367;BME280;6752;52.612;13.630;2022-12-13T02:36:49;100531.95;;;-0.66;100.00
13367;BME280;6752;52.612;13.630;2022-12-13T02:41:59;100536.61;;;-0.68;100.00
13367;BME280;6752;52.612;13.630;2022-12-13T02:47:08;100533.94;;;-0.68;100.00
13367;BME280;6752;52.612;13.630;2022-12-13T02:52:05;100539.72;;;-0.73;100.00
13367;BME280;6752;52.612;13.630;2022-12-13T02:57:29;100540.52;;;-0.76;100.00
13367;BME280;6752;52.612;13.630;2022-12-13T03:02:37;100535.32;;;-0.78;100.00
13367;BME280;6752;52.612;13.630;2022-12-13T03:08:44;100525.00;;;-0.73;100.00
13367;BME280;6752;52.612;13.630;2022-12-13T03:13:04;100521.89;;;-0.68;100.00
13367;BME280;6752;52.612;13.630;2022-12-13T03:18:23;100529.02;;;-0.73;100.00
13367;BME280;6752;52.612;13.630;2022-12-13T03:23:25;100525.30;;;-0.71;100.00
13367;BME280;6752;52.612;13.630;2022-12-13T03:28:28;100529.77;;;-0.71;100.00
13367;BME280;6752;52.612;13.630;2022-12-13T03:33:30;100518.75;;;-0.64;100.00
13367;BME280;6752;52.612;13.630;2022-12-13T03:38:33;100524.60;;;-0.64;100.00
13367;BME280;6752;52.612;13.630;2022-12-13T03:43:38;100512.21;;;-0.65;100.00
13367;BME280;6752;52.612;13.630;2022-12-13T03:48:41;100517.34;;;-0.63;100.00
13367;BME280;6752;52.612;13.630;2022-12-13T03:53:43;100507.25;;;-0.69;100.00
13367;BME280;6752;52.612;13.630;2022-12-13T03:58:46;100505.77;;;-0.72;100.00
13367;BME280;6752;52.612;13.630;2022-12-13T04:03:48;100507.86;;;-0.66;100.00
13367;BME280;6752;52.612;13.630;2022-12-13T04:08:51;100507.90;;;-0.71;100.00
13367;BME280;6752;52.612;13.630;2022-12-13T04:13:56;100506.06;;;-0.70;100.00
13367;BME280;6752;52.612;13.630;2022-12-13T04:19:02;100507.66;;;-0.69;100.00
13367;BME280;6752;52.612;13.630;2022-12-13T04:24:05;100509.36;;;-0.72;100.00
13367;BME280;6752;52.612;13.630;2022-12-13T04:29:07;100515.33;;;-0.79;100.00
13367;BME280;6752;52.612;13.630;2022-12-13T04:34:13;100512.34;;;-0.75;100.00
13367;BME280;6752;52.612;13.630;2022-12-13T04:39:15;100511.45;;;-0.71;100.00
13367;BME280;6752;52.612;13.630;2022-12-13T04:44:20;100516.54;;;-0.68;100.00
13367;BME280;6752;52.612;13.630;2022-12-13T04:49:22;100518.45;;;-0.74;100.00
13367;BME280;6752;52.612;13.630;2022-12-13T04:54:26;100512.69;;;-0.74;100.00
13367;BME280;6752;52.612;13.630;2022-12-13T04:59:29;100516.19;;;-0.69;100.00
13367;BME280;6752;52.612;13.630;2022-12-13T05:04:35;100512.67;;;-0.61;100.00
13367;BME280;6752;52.612;13.630;2022-12-13T05:09:38;100522.31;;;-0.68;100.00
13367;BME280;6752;52.612;13.630;2022-12-13T05:14:40;100514.76;;;-0.51;100.00
13367;BME280;6752;52.612;13.630;2022-12-13T05:19:42;100511.16;;;-0.50;100.00
13367;BME280;6752;52.612;13.630;2022-12-13T05:24:48;100497.95;;;-0.43;100.00
13367;BME280;6752;52.612;13.630;2022-12-13T05:29:50;100500.12;;;-0.42;100.00
13367;BME280;6752;52.612;13.630;2022-12-13T05:34:52;100500.66;;;-0.57;100.00
13367;BME280;6752;52.612;13.630;2022-12-13T05:39:55;100508.62;;;-0.65;100.00
13367;BME280;6752;52.612;13.630;2022-12-13T05:45:00;100514.08;;;-0.62;100.00
13367;BME280;6752;52.612;13.630;2022-12-13T05:50:02;100506.09;;;-0.66;100.00
13367;BME280;6752;52.612;13.630;2022-12-13T05:55:05;100506.39;;;-0.60;100.00
13367;BME280;6752;52.612;13.630;2022-12-13T06:00:07;100513.16;;;-0.61;100.00
13367;BME280;6752;52.612;13.630;2022-12-13T06:05:10;100503.22;;;-0.60;100.00
13367;BME280;6752;52.612;13.630;2022-12-13T06:10:13;100508.84;;;-0.58;100.00
13367;BME280;6752;52.612;13.630;2022-12-13T06:15:18;100511.61;;;-0.68;100.00
13367;BME280;6752;52.612;13.630;2022-12-13T06:20:20;100517.48;;;-0.64;100.00
13367;BME280;6752;52.612;13.630;2022-12-13T06:25:25;100521.89;;;-0.68;100.00
13367;BME280;6752;52.612;13.630;2022-12-13T06:30:27;100524.48;;;-0.58;100.00
13367;BME280;6752;52.612;13.630;2022-12-13T06:35:29;100531.61;;;-0.72;100.00
13367;BME280;6752;52.612;13.630;2022-12-13T06:40:34;100533.48;;;-0.77;100.00
13367;BME280;6752;52.612;13.630;2022-12-13T06:45:40;100536.77;;;-0.83;100.00
13367;BME280;6752;52.612;13.630;2022-12-13T06:50:42;100538.19;;;-0.75;100.00
13367;BME280;6752;52.612;13.630;2022-12-13T06:55:47;100555.58;;;-0.84;100.00
13367;BME280;6752;52.612;13.630;2022-12-13T07:00:59;100550.80;;;-0.77;100.00
13367;BME280;6752;52.612;13.630;2022-12-13T07:05:54;100556.00;;;-0.70;100.00
13367;BME280;6752;52.612;13.630;2022-12-13T07:10:57;100565.94;;;-0.85;100.00
13367;BME280;6752;52.612;13.630;2022-12-13T07:15:59;100568.73;;;-0.91;100.00
13367;BME280;6752;52.612;13.630;2022-12-13T07:21:09;100577.64;;;-0.77;100.00
13367;BME280;6752;52.612;13.630;2022-12-13T07:26:07;100578.33;;;-0.84;100.00
13367;BME280;6752;52.612;13.630;2022-12-13T07:31:13;100578.25;;;-0.83;100.00
13367;BME280;6752;52.612;13.630;2022-12-13T07:36:16;100583.15;;;-0.79;100.00
13367;BME280;6752;52.612;13.630;2022-12-13T07:41:17;100582.46;;;-0.81;100.00
13367;BME280;6752;52.612;13.630;2022-12-13T07:46:23;100581.80;;;-0.88;100.00
13367;BME280;6752;52.612;13.630;2022-12-13T07:51:25;100588.00;;;-0.78;100.00
13367;BME280;6752;52.612;13.630;2022-12-13T07:56:31;100587.78;;;-0.76;100.00
13367;BME280;6752;52.612;13.630;2022-12-13T08:01:36;100591.88;;;-0.77;100.00
13367;BME280;6752;52.612;13.630;2022-12-13T08:06:40;100593.63;;;-0.77;100.00
13367;BME280;6752;52.612;13.630;2022-12-13T08:11:43;100588.08;;;-0.65;100.00
13367;BME280;6752;52.612;13.630;2022-12-13T08:16:48;100595.66;;;-0.70;100.00
13367;BME280;6752;52.612;13.630;2022-12-13T08:21:51;100591.38;;;-0.63;100.00
13367;BME280;6752;52.612;13.630;2022-12-13T08:26:59;100604.61;;;-0.61;100.00
13367;BME280;6752;52.612;13.630;2022-12-13T08:32:08;100610.00;;;-0.57;100.00
13367;BME280;6752;52.612;13.630;2022-12-13T08:37:06;100607.36;;;-0.53;100.00
13367;BME280;6752;52.612;13.630;2022-12-13T08:42:12;100619.64;;;-0.55;100.00
13367;BME280;6752;52.612;13.630;2022-12-13T08:47:17;100611.83;;;-0.44;100.00
13367;BME280;6752;52.612;13.630;2022-12-13T08:52:20;100628.23;;;-0.43;100.00
13367;BME280;6752;52.612;13.630;2022-12-13T08:57:21;100630.23;;;-0.44;100.00
13367;BME280;6752;52.612;13.630;2022-12-13T09:02:27;100630.03;;;-0.47;100.00
13367;BME280;6752;52.612;13.630;2022-12-13T09:07:26;100626.90;;;-0.34;100.00
13367;BME280;6752;52.612;13.630;2022-12-13T09:12:29;100623.15;;;-0.41;100.00
13367;BME280;6752;52.612;13.630;2022-12-13T09:17:31;100636.89;;;-0.54;100.00
13367;BME280;6752;52.612;13.630;2022-12-13T09:22:34;100637.15;;;-0.47;100.00
13367;BME280;6752;52.612;13.630;2022-12-13T09:27:36;100635.93;;;-0.57;100.00
13367;BME280;6752;52.612;13.630;2022-12-13T09:32:39;100643.77;;;-0.51;100.00
13367;BME280;6752;52.612;13.630;2022-12-13T09:37:41;100634.75;;;-0.50;100.00
13367;BME280;6752;52.612;13.630;2022-12-13T09:42:43;100640.44;;;-0.35;100.00
13367;BME280;6752;52.612;13.630;2022-12-13T09:47:46;100639.87;;;-0.43;100.00
13367;BME280;6752;52.612;13.630;2022-12-13T09:52:48;100625.70;;;-0.26;100.00
13367;BME280;6752;52.612;13.630;2022-12-13T09:57:50;100621.88;;;-0.33;100.00
13367;BME280;6752;52.612;13.630;2022-12-13T10:02:57;100621.19;;;-0.26;100.00
13367;BME280;6752;52.612;13.630;2022-12-13T10:07:56;100621.23;;;-0.04;100.00
13367;BME280;6752;52.612;13.630;2022-12-13T10:13:01;100620.05;;;-0.06;100.00
13367;BME280;6752;52.612;13.630;2022-12-13T10:18:00;100615.20;;;-0.15;100.00
13367;BME280;6752;52.612;13.630;2022-12-13T10:23:02;100616.00;;;-0.10;100.00
13367;BME280;6752;52.612;13.630;2022-12-13T10:28:05;100612.27;;;0.01;100.00
13367;BME280;6752;52.612;13.630;2022-12-13T10:33:22;100617.87;;;-0.06;100.00
13367;BME280;6752;52.612;13.630;2022-12-13T10:38:26;100611.19;;;-0.15;100.00
13367;BME280;6752;52.612;13.630;2022-12-13T10:43:28;100612.53;;;0.03;100.00
13367;BME280;6752;52.612;13.630;2022-12-13T10:48:54;100614.09;;;-0.17;100.00
13367;BME280;6752;52.612;13.630;2022-12-13T10:53:57;100599.72;;;-0.03;100.00
13367;BME280;6752;52.612;13.630;2022-12-13T10:59:09;100600.13;;;-0.16;100.00
13367;BME280;6752;52.612;13.630;2022-12-13T11:09:32;100602.54;;;0.00;100.00
13367;BME280;6752;52.612;13.630;2022-12-13T11:14:36;100612.23;;;0.10;100.00
13367;BME280;6752;52.612;13.630;2022-12-13T11:19:39;100600.23;;;0.05;100.00
13367;BME280;6752;52.612;13.630;2022-12-13T11:24:41;100599.45;;;-0.05;100.00
13367;BME280;6752;52.612;13.630;2022-12-13T11:35:12;100600.47;;;0.03;100.00
13367;BME280;6752;52.612;13.630;2022-12-13T11:40:10;100605.09;;;0.06;100.00
13367;BME280;6752;52.612;13.630;2022-12-13T11:50:27;100592.70;;;0.00;100.00
13367;BME280;6752;52.612;13.630;2022-12-13T11:55:41;100596.30;;;-0.13;100.00
13367;BME280;6752;52.612;13.630;2022-12-13T12:00:40;100599.36;;;0.01;100.00
13367;BME280;6752;52.612;13.630;2022-12-13T12:05:51;100592.02;;;-0.02;100.00
13367;BME280;6752;52.612;13.630;2022-12-13T12:11:21;100592.08;;;0.02;100.00
13367;BME280;6752;52.612;13.630;2022-12-13T12:21:41;100595.19;;;0.02;100.00
13367;BME280;6752;52.612;13.630;2022-12-13T12:31:55;100594.28;;;0.24;100.00
13367;BME280;6752;52.612;13.630;2022-12-13T12:37:16;100594.95;;;0.04;100.00
13367;BME280;6752;52.612;13.630;2022-12-13T12:42:21;100587.52;;;0.20;100.00
13367;BME280;6752;52.612;13.630;2022-12-13T12:52:48;100580.34;;;0.12;100.00
13367;BME280;6752;52.612;13.630;2022-12-13T12:57:53;100583.44;;;0.34;100.00
13367;BME280;6752;52.612;13.630;2022-12-13T13:03:35;100581.20;;;0.38;99.79
13367;BME280;6752;52.612;13.630;2022-12-13T13:08:13;100582.13;;;0.16;98.14
13367;BME280;6752;52.612;13.630;2022-12-13T13:18:52;100588.94;;;0.06;96.72
13367;BME280;6752;52.612;13.630;2022-12-13T13:34:29;100593.11;;;0.18;97.08
13367;BME280;6752;52.612;13.630;2022-12-13T13:44:33;100599.71;;;0.36;97.98
13367;BME280;6752;52.612;13.630;2022-12-13T13:49:34;100589.46;;;0.32;98.78
13367;BME280;6752;52.612;13.630;2022-12-13T14:00:16;100593.78;;;0.25;96.96
13367;BME280;6752;52.612;13.630;2022-12-13T14:05:27;100600.19;;;0.32;96.91
13367;BME280;6752;52.612;13.630;2022-12-13T14:16:08;100595.91;;;0.30;95.42
13367;BME280;6752;52.612;13.630;2022-12-13T14:31:53;100585.05;;;0.36;94.74
13367;BME280;6752;52.612;13.630;2022-12-13T14:36:59;100582.28;;;0.36;95.41
13367;BME280;6752;52.612;13.630;2022-12-13T14:42:01;100592.66;;;0.35;96.12
13367;BME280;6752;52.612;13.630;2022-12-13T14:47:06;100593.34;;;0.37;95.73
13367;BME280;6752;52.612;13.630;2022-12-13T14:52:20;100589.96;;;0.31;96.00
13367;BME280;6752;52.612;13.630;2022-12-13T14:57:18;100590.22;;;0.33;96.17
13367;BME280;6752;52.612;13.630;2022-12-13T15:02:23;100597.11;;;0.36;96.87
13367;BME280;6752;52.612;13.630;2022-12-13T15:07:25;100597.48;;;0.28;96.33
13367;BME280;6752;52.612;13.630;2022-12-13T15:12:26;100594.56;;;0.30;96.24
13367;BME280;6752;52.612;13.630;2022-12-13T15:17:37;100593.45;;;-0.12;96.87
13367;BME280;6752;52.612;13.630;2022-12-13T15:22:38;100593.59;;;-0.05;97.86
13367;BME280;6752;52.612;13.630;2022-12-13T15:27:43;100607.52;;;-0.01;99.44
13367;BME280;6752;52.612;13.630;2022-12-13T15:33:15;100596.03;;;0.03;98.84
13367;BME280;6752;52.612;13.630;2022-12-13T15:38:11;100602.24;;;-0.24;99.89
13367;BME280;6752;52.612;13.630;2022-12-13T15:43:17;100607.27;;;-0.29;100.00
13367;BME280;6752;52.612;13.630;2022-12-13T15:48:26;100606.53;;;-0.27;100.00
13367;BME280;6752;52.612;13.630;2022-12-13T15:53:27;100601.34;;;-0.46;100.00
13367;BME280;6752;52.612;13.630;2022-12-13T15:58:33;100595.53;;;-0.41;100.00
13367;BME280;6752;52.612;13.630;2022-12-13T16:03:41;100591.09;;;-0.42;100.00
13367;BME280;6752;52.612;13.630;2022-12-13T16:08:43;100602.34;;;-0.61;100.00
13367;BME280;6752;52.612;13.630;2022-12-13T16:13:45;100596.30;;;-0.54;100.00
13367;BME280;6752;52.612;13.630;2022-12-13T16:18:52;100590.43;;;-0.31;100.00
13367;BME280;6752;52.612;13.630;2022-12-13T16:23:51;100592.14;;;-0.52;100.00
13367;BME280;6752;52.612;13.630;2022-12-13T16:28:54;100595.54;;;-0.55;100.00
13367;BME280;6752;52.612;13.630;2022-12-13T16:33:56;100597.75;;;-0.68;100.00
13367;BME280;6752;52.612;13.630;2022-12-13T16:39:05;100588.42;;;-0.64;100.00
13367;BME280;6752;52.612;13.630;2022-12-13T16:48:55;100576.49;;;-0.61;100.00
13367;BME280;6752;52.612;13.630;2022-12-13T16:53:58;100573.92;;;-0.89;100.00
13367;BME280;6752;52.612;13.630;2022-12-13T16:59:00;100578.45;;;-0.81;100.00
13367;BME280;6752;52.612;13.630;2022-12-13T17:04:02;100589.80;;;-0.83;100.00
13367;BME280;6752;52.612;13.630;2022-12-13T17:09:05;100582.13;;;-0.73;100.00
13367;BME280;6752;52.612;13.630;2022-12-13T17:14:07;100578.37;;;-0.66;100.00
13367;BME280;6752;52.612;13.630;2022-12-13T17:19:16;100578.67;;;-0.83;100.00
13367;BME280;6752;52.612;13.630;2022-12-13T17:24:18;100575.05;;;-0.78;100.00
13367;BME280;6752;52.612;13.630;2022-12-13T17:29:21;100582.45;;;-0.90;100.00
13367;BME280;6752;52.612;13.630;2022-12-13T17:34:24;100586.54;;;-0.95;100.00
13367;BME280;6752;52.612;13.630;2022-12-13T17:39:26;100585.50;;;-0.98;100.00
13367;BME280;6752;52.612;13.630;2022-12-13T17:44:28;100588.34;;;-1.14;100.00
13367;BME280;6752;52.612;13.630;2022-12-13T17:49:31;100576.66;;;-1.13;100.00
13367;BME280;6752;52.612;13.630;2022-12-13T17:54:33;100574.12;;;-1.19;100.00
13367;BME280;6752;52.612;13.630;2022-12-13T17:59:36;100572.09;;;-1.35;100.00
13367;BME280;6752;52.612;13.630;2022-12-13T18:04:43;100571.09;;;-1.52;100.00
13367;BME280;6752;52.612;13.630;2022-12-13T18:09:45;100574.23;;;-1.62;100.00
13367;BME280;6752;52.612;13.630;2022-12-13T18:14:57;100569.19;;;-1.74;100.00
13367;BME280;6752;52.612;13.630;2022-12-13T18:19:59;100566.84;;;-1.87;100.00
13367;BME280;6752;52.612;13.630;2022-12-13T18:25:02;100560.70;;;-1.83;100.00
13367;BME280;6752;52.612;13.630;2022-12-13T18:30:04;100564.48;;;-2.09;100.00
13367;BME280;6752;52.612;13.630;2022-12-13T18:35:06;100561.88;;;-2.10;100.00
13367;BME280;6752;52.612;13.630;2022-12-13T18:40:08;100565.30;;;-2.14;100.00
13367;BME280;6752;52.612;13.630;2022-12-13T18:45:11;100562.56;;;-2.18;100.00
13367;BME280;6752;52.612;13.630;2022-12-13T18:50:13;100561.78;;;-2.14;100.00
13367;BME280;6752;52.612;13.630;2022-12-13T18:55:23;100573.95;;;-2.40;100.00
13367;BME280;6752;52.612;13.630;2022-12-13T19:00:25;100570.79;;;-2.20;100.00
13367;BME280;6752;52.612;13.630;2022-12-13T19:05:33;100574.45;;;-2.50;100.00
13367;BME280;6752;52.612;13.630;2022-12-13T19:10:36;100569.22;;;-2.76;100.00
13367;BME280;6752;52.612;13.630;2022-12-13T19:15:38;100572.09;;;-2.73;100.00
13367;BME280;6752;52.612;13.630;2022-12-13T19:20:50;100570.58;;;-2.91;100.00
13367;BME280;6752;52.612;13.630;2022-12-13T19:25:52;100564.45;;;-2.82;100.00
13367;BME280;6752;52.612;13.630;2022-12-13T19:30:54;100575.15;;;-2.87;100.00
13367;BME280;6752;52.612;13.630;2022-12-13T19:35:57;100577.44;;;-3.03;100.00
13367;BME280;6752;52.612;13.630;2022-12-13T19:41:04;100572.55;;;-3.13;100.00
13367;BME280;6752;52.612;13.630;2022-12-13T19:46:02;100572.97;;;-3.13;100.00
13367;BME280;6752;52.612;13.630;2022-12-13T19:51:07;100575.22;;;-3.08;100.00
13367;BME280;6752;52.612;13.630;2022-12-13T19:56:12;100577.94;;;-3.19;100.00
13367;BME280;6752;52.612;13.630;2022-12-13T20:01:14;100579.67;;;-3.28;100.00
13367;BME280;6752;52.612;13.630;2022-12-13T20:06:18;100572.88;;;-3.37;100.00
13367;BME280;6752;52.612;13.630;2022-12-13T20:11:19;100575.98;;;-3.32;100.00
13367;BME280;6752;52.612;13.630;2022-12-13T20:16:22;100575.95;;;-3.42;100.00
13367;BME280;6752;52.612;13.630;2022-12-13T20:21:24;100571.18;;;-3.43;100.00
13367;BME280;6752;52.612;13.630;2022-12-13T20:26:27;100568.52;;;-3.43;100.00
13367;BME280;6752;52.612;13.630;2022-12-13T20:31:32;100573.75;;;-3.52;100.00
13367;BME280;6752;52.612;13.630;2022-12-13T20:36:33;100574.34;;;-3.69;100.00
13367;BME280;6752;52.612;13.630;2022-12-13T20:41:36;100561.81;;;-3.68;100.00
13367;BME280;6752;52.612;13.630;2022-12-13T20:46:38;100557.16;;;-3.75;100.00
13367;BME280;6752;52.612;13.630;2022-12-13T20:51:40;100560.17;;;-3.74;100.00
13367;BME280;6752;52.612;13.630;2022-12-13T20:56:43;100550.50;;;-3.81;100.00
13367;BME280;6752;52.612;13.630;2022-12-13T21:01:45;100550.06;;;-3.86;100.00
13367;BME280;6752;52.612;13.630;2022-12-13T21:06:47;100553.86;;;-3.84;100.00
13367;BME280;6752;52.612;13.630;2022-12-13T21:11:50;100549.20;;;-3.91;100.00
13367;BME280;6752;52.612;13.630;2022-12-13T21:16:58;100551.77;;;-3.95;100.00
13367;BME280;6752;52.612;13.630;2022-12-13T21:22:02;100546.00;;;-3.85;100.00
13367;BME280;6752;52.612;13.630;2022-12-13T21:27:04;100538.66;;;-3.98;100.00
13367;BME280;6752;52.612;13.630;2022-12-13T21:32:06;100535.34;;;-4.11;100.00
13367;BME280;6752;52.612;13.630;2022-12-13T21:37:09;100528.23;;;-4.16;100.00
13367;BME280;6752;52.612;13.630;2022-12-13T21:42:11;100521.14;;;-4.27;100.00
13367;BME280;6752;52.612;13.630;2022-12-13T21:47:15;100521.47;;;-4.30;100.00
13367;BME280;6752;52.612;13.630;2022-12-13T21:52:17;100522.51;;;-4.32;100.00
13367;BME280;6752;52.612;13.630;2022-12-13T21:57:19;100509.99;;;-4.41;100.00
13367;BME280;6752;52.612;13.630;2022-12-13T22:02:40;100520.09;;;-4.56;100.00
13367;BME280;6752;52.612;13.630;2022-12-13T22:07:46;100517.45;;;-4.62;100.00
13367;BME280;6752;52.612;13.630;2022-12-13T22:12:51;100506.85;;;-4.67;100.00
13367;BME280;6752;52.612;13.630;2022-12-13T22:17:56;100493.52;;;-4.62;100.00
13367;BME280;6752;52.612;13.630;2022-12-13T22:22:58;100489.98;;;-4.57;100.00
13367;BME280;6752;52.612;13.630;2022-12-13T22:28:01;100492.25;;;-4.52;100.00
13367;BME280;6752;52.612;13.630;2022-12-13T22:33:06;100487.13;;;-4.91;100.00
13367;BME280;6752;52.612;13.630;2022-12-13T22:38:09;100487.80;;;-4.94;100.00
13367;BME280;6752;52.612;13.630;2022-12-13T22:43:11;100477.59;;;-4.94;100.00
13367;BME280;6752;52.612;13.630;2022-12-13T22:48:14;100476.45;;;-5.02;100.00
13367;BME280;6752;52.612;13.630;2022-12-13T22:53:18;100466.31;;;-4.86;100.00
13367;BME280;6752;52.612;13.630;2022-12-13T22:58:21;100462.70;;;-5.07;100.00
13367;BME280;6752;52.612;13.630;2022-12-13T23:03:23;100458.33;;;-5.02;100.00
13367;BME280;6752;52.612;13.630;2022-12-13T23:08:26;100458.84;;;-4.98;100.00
13367;BME280;6752;52.612;13.630;2022-12-13T23:13:28;100453.59;;;-4.99;100.00
13367;BME280;6752;52.612;13.630;2022-12-13T23:18:30;100448.96;;;-5.01;100.00
13367;BME280;6752;52.612;13.630;2022-12-13T23:23:36;100435.92;;;-5.04;100.00
13367;BME280;6752;52.612;13.630;2022-12-13T23:28:38;100428.54;;;-4.95;100.00
13367;BME280;6752;52.612;13.630;2022-12-13T23:33:43;100427.21;;;-5.01;100.00
13367;BME280;6752;52.612;13.630;2022-12-13T23:38:46;100425.69;;;-4.99;100.00
13367;BME280;6752;52.612;13.630;2022-12-13T23:43:56;100415.12;;;-4.94;100.00
13367;BME280;6752;52.612;13.630;2022-12-13T23:48:59;100409.70;;;-5.03;100.00
13367;BME280;6752;52.612;13.630;2022-12-13T23:54:01;100402.16;;;-5.03;100.00
13367;BME280;6752;52.612;13.630;2022-12-13T23:59:04;100398.04;;;-5.02;100.00
